sensor_id;sensor_type;location;lat;lon;timestamp;temperature;humidity
45207;DHT22;30950;53.086;21.576;2024-01-30T00:02:20;2.00;99.90
45207;DHT22;30950;53.086;21.576;2024-01-30T00:04:47;2.00;99.90
45207;DHT22;30950;53.086;21.576;2024-01-30T00:07:15;2.00;99.90
45207;DHT22;30950;53.086;21.576;2024-01-30T00:09:42;2.00;99.90
45207;DHT22;30950;53.086;21.576;2024-01-30T00:12:09;2.00;99.90
45207;DHT22;30950;53.086;21.576;2024-01-30T00:14:36;2.00;99.90
45207;DHT22;30950;53.086;21.576;2024-01-30T00:17:04;2.00;99.90
45207;DHT22;30950;53.086;21.576;2024-01-30T00:19:31;1.90;99.90
45207;DHT22;30950;53.086;21.576;2024-01-30T00:21:59;1.90;99.90
45207;DHT22;30950;53.086;21.576;2024-01-30T00:24:26;1.90;99.90
45207;DHT22;30950;53.086;21.576;2024-01-30T00:26:54;1.80;99.90
45207;DHT22;30950;53.086;21.576;2024-01-30T00:29:21;1.80;99.90
45207;DHT22;30950;53.086;21.576;2024-01-30T00:31:50;1.80;99.90
45207;DHT22;30950;53.086;21.576;2024-01-30T00:34:17;1.80;99.90
45207;DHT22;30950;53.086;21.576;2024-01-30T00:36:44;1.80;99.90
45207;DHT22;30950;53.086;21.576;2024-01-30T00:39:11;1.80;99.90
45207;DHT22;30950;53.086;21.576;2024-01-30T00:41:39;1.80;99.90
45207;DHT22;30950;53.086;21.576;2024-01-30T00:44:06;1.70;99.90
45207;DHT22;30950;53.086;21.576;2024-01-30T00:46:33;1.70;99.90
45207;DHT22;30950;53.086;21.576;2024-01-30T00:49:01;1.70;99.90
45207;DHT22;30950;53.086;21.576;2024-01-30T00:51:28;1.80;99.90
45207;DHT22;30950;53.086;21.576;2024-01-30T00:53:58;1.70;99.90
45207;DHT22;30950;53.086;21.576;2024-01-30T00:56:26;1.80;99.90
45207;DHT22;30950;53.086;21.576;2024-01-30T00:58:53;1.70;99.90
45207;DHT22;30950;53.086;21.576;2024-01-30T01:01:20;1.70;99.90
45207;DHT22;30950;53.086;21.576;2024-01-30T01:03:48;1.70;99.90
45207;DHT22;30950;53.086;21.576;2024-01-30T01:06:16;1.70;99.90
45207;DHT22;30950;53.086;21.576;2024-01-30T01:08:43;1.70;99.90
45207;DHT22;30950;53.086;21.576;2024-01-30T01:11:10;1.70;99.90
45207;DHT22;30950;53.086;21.576;2024-01-30T01:13:38;1.70;99.90
45207;DHT22;30950;53.086;21.576;2024-01-30T01:16:05;1.70;99.90
45207;DHT22;30950;53.086;21.576;2024-01-30T01:18:32;1.60;99.90
45207;DHT22;30950;53.086;21.576;2024-01-30T01:21:00;1.70;99.90
45207;DHT22;30950;53.086;21.576;2024-01-30T01:23:27;1.70;99.90
45207;DHT22;30950;53.086;21.576;2024-01-30T01:25:55;1.60;99.90
45207;DHT22;30950;53.086;21.576;2024-01-30T01:28:26;1.70;99.90
45207;DHT22;30950;53.086;21.576;2024-01-30T01:30:54;1.70;99.90
45207;DHT22;30950;53.086;21.576;2024-01-30T01:33:26;1.60;99.90
45207;DHT22;30950;53.086;21.576;2024-01-30T01:35:53;1.60;99.90
45207;DHT22;30950;53.086;21.576;2024-01-30T01:38:20;1.60;99.90
45207;DHT22;30950;53.086;21.576;2024-01-30T01:40:48;1.60;99.90
45207;DHT22;30950;53.086;21.576;2024-01-30T01:43:15;2.70;99.90
45207;DHT22;30950;53.086;21.576;2024-01-30T01:45:42;1.60;99.90
45207;DHT22;30950;53.086;21.576;2024-01-30T01:48:10;1.60;99.90
45207;DHT22;30950;53.086;21.576;2024-01-30T01:50:38;1.60;99.90
45207;DHT22;30950;53.086;21.576;2024-01-30T01:53:07;1.70;99.90
45207;DHT22;30950;53.086;21.576;2024-01-30T01:55:35;1.70;99.90
45207;DHT22;30950;53.086;21.576;2024-01-30T01:58:03;1.70;99.90
45207;DHT22;30950;53.086;21.576;2024-01-30T02:00:30;1.70;99.90
45207;DHT22;30950;53.086;21.576;2024-01-30T02:02:58;3.20;99.90
45207;DHT22;30950;53.086;21.576;2024-01-30T02:05:26;1.70;99.90
45207;DHT22;30950;53.086;21.576;2024-01-30T02:07:54;1.70;99.90
45207;DHT22;30950;53.086;21.576;2024-01-30T02:10:22;1.70;99.90
45207;DHT22;30950;53.086;21.576;2024-01-30T02:12:49;1.70;99.90
45207;DHT22;30950;53.086;21.576;2024-01-30T02:15:17;1.70;99.90
45207;DHT22;30950;53.086;21.576;2024-01-30T02:17:44;1.60;99.90
45207;DHT22;30950;53.086;21.576;2024-01-30T02:20:19;1.60;99.90
45207;DHT22;30950;53.086;21.576;2024-01-30T02:22:47;1.60;99.90
45207;DHT22;30950;53.086;21.576;2024-01-30T02:25:15;1.60;99.90
45207;DHT22;30950;53.086;21.576;2024-01-30T02:27:42;1.60;99.90
45207;DHT22;30950;53.086;21.576;2024-01-30T02:30:10;1.60;99.90
45207;DHT22;30950;53.086;21.576;2024-01-30T02:32:38;1.50;99.90
45207;DHT22;30950;53.086;21.576;2024-01-30T02:35:05;1.50;99.90
45207;DHT22;30950;53.086;21.576;2024-01-30T02:37:33;1.50;99.90
45207;DHT22;30950;53.086;21.576;2024-01-30T02:40:00;1.40;99.90
45207;DHT22;30950;53.086;21.576;2024-01-30T02:42:28;1.50;99.90
45207;DHT22;30950;53.086;21.576;2024-01-30T02:44:55;1.50;99.90
45207;DHT22;30950;53.086;21.576;2024-01-30T02:47:22;1.50;99.90
45207;DHT22;30950;53.086;21.576;2024-01-30T02:49:49;1.40;99.90
45207;DHT22;30950;53.086;21.576;2024-01-30T02:52:22;1.40;99.90
45207;DHT22;30950;53.086;21.576;2024-01-30T02:54:49;1.40;99.90
45207;DHT22;30950;53.086;21.576;2024-01-30T02:57:16;2.50;99.90
45207;DHT22;30950;53.086;21.576;2024-01-30T02:59:43;1.40;99.90
45207;DHT22;30950;53.086;21.576;2024-01-30T03:02:11;1.40;99.90
45207;DHT22;30950;53.086;21.576;2024-01-30T03:04:41;1.40;99.90
45207;DHT22;30950;53.086;21.576;2024-01-30T03:07:08;1.40;99.90
45207;DHT22;30950;53.086;21.576;2024-01-30T03:09:36;1.30;99.90
45207;DHT22;30950;53.086;21.576;2024-01-30T03:12:04;1.40;99.90
45207;DHT22;30950;53.086;21.576;2024-01-30T03:14:36;1.30;99.90
45207;DHT22;30950;53.086;21.576;2024-01-30T03:17:03;1.30;99.90
45207;DHT22;30950;53.086;21.576;2024-01-30T03:19:30;1.30;99.90
45207;DHT22;30950;53.086;21.576;2024-01-30T03:21:58;1.30;99.90
45207;DHT22;30950;53.086;21.576;2024-01-30T03:24:25;1.30;99.90
45207;DHT22;30950;53.086;21.576;2024-01-30T03:26:53;1.30;99.90
45207;DHT22;30950;53.086;21.576;2024-01-30T03:29:20;1.30;99.90
45207;DHT22;30950;53.086;21.576;2024-01-30T03:31:48;1.30;99.90
45207;DHT22;30950;53.086;21.576;2024-01-30T03:34:15;1.30;99.90
45207;DHT22;30950;53.086;21.576;2024-01-30T03:36:42;1.40;99.90
45207;DHT22;30950;53.086;21.576;2024-01-30T03:39:10;1.40;99.90
45207;DHT22;30950;53.086;21.576;2024-01-30T03:41:37;1.30;99.90
45207;DHT22;30950;53.086;21.576;2024-01-30T03:44:04;1.30;99.90
45207;DHT22;30950;53.086;21.576;2024-01-30T03:46:33;1.30;99.90
45207;DHT22;30950;53.086;21.576;2024-01-30T03:49:00;1.30;99.90
45207;DHT22;30950;53.086;21.576;2024-01-30T03:51:27;1.30;99.90
45207;DHT22;30950;53.086;21.576;2024-01-30T03:53:55;1.30;99.90
45207;DHT22;30950;53.086;21.576;2024-01-30T03:56:22;1.30;99.90
45207;DHT22;30950;53.086;21.576;2024-01-30T03:58:49;1.30;99.90
45207;DHT22;30950;53.086;21.576;2024-01-30T04:01:17;1.30;99.90
45207;DHT22;30950;53.086;21.576;2024-01-30T04:03:44;1.30;99.90
45207;DHT22;30950;53.086;21.576;2024-01-30T04:06:12;1.30;99.90
45207;DHT22;30950;53.086;21.576;2024-01-30T04:08:39;1.30;99.90
45207;DHT22;30950;53.086;21.576;2024-01-30T04:11:07;1.30;99.90
45207;DHT22;30950;53.086;21.576;2024-01-30T04:13:34;1.30;99.90
45207;DHT22;30950;53.086;21.576;2024-01-30T04:16:02;1.30;99.90
45207;DHT22;30950;53.086;21.576;2024-01-30T04:18:30;1.30;99.90
45207;DHT22;30950;53.086;21.576;2024-01-30T04:20:57;1.30;99.90
45207;DHT22;30950;53.086;21.576;2024-01-30T04:23:24;1.30;99.90
45207;DHT22;30950;53.086;21.576;2024-01-30T04:25:52;1.30;99.90
45207;DHT22;30950;53.086;21.576;2024-01-30T04:28:19;1.20;99.90
45207;DHT22;30950;53.086;21.576;2024-01-30T04:30:47;1.30;99.90
45207;DHT22;30950;53.086;21.576;2024-01-30T04:33:14;1.30;99.90
45207;DHT22;30950;53.086;21.576;2024-01-30T04:35:42;1.50;99.90
45207;DHT22;30950;53.086;21.576;2024-01-30T04:38:09;1.30;99.90
45207;DHT22;30950;53.086;21.576;2024-01-30T04:40:36;1.30;99.90
45207;DHT22;30950;53.086;21.576;2024-01-30T04:43:04;1.30;99.90
45207;DHT22;30950;53.086;21.576;2024-01-30T04:45:31;1.30;99.90
45207;DHT22;30950;53.086;21.576;2024-01-30T04:47:58;1.30;99.90
45207;DHT22;30950;53.086;21.576;2024-01-30T04:50:26;1.30;99.90
45207;DHT22;30950;53.086;21.576;2024-01-30T04:52:53;1.40;99.90
45207;DHT22;30950;53.086;21.576;2024-01-30T04:55:21;1.40;99.90
45207;DHT22;30950;53.086;21.576;2024-01-30T04:57:49;1.30;99.90
45207;DHT22;30950;53.086;21.576;2024-01-30T05:00:17;1.40;99.90
45207;DHT22;30950;53.086;21.576;2024-01-30T05:02:44;1.40;99.90
45207;DHT22;30950;53.086;21.576;2024-01-30T05:05:12;1.40;99.90
45207;DHT22;30950;53.086;21.576;2024-01-30T05:07:41;1.40;99.90
45207;DHT22;30950;53.086;21.576;2024-01-30T05:10:09;1.40;99.90
45207;DHT22;30950;53.086;21.576;2024-01-30T05:12:36;1.40;99.90
45207;DHT22;30950;53.086;21.576;2024-01-30T05:15:04;1.80;99.90
45207;DHT22;30950;53.086;21.576;2024-01-30T05:17:31;1.40;99.90
45207;DHT22;30950;53.086;21.576;2024-01-30T05:19:59;1.40;99.90
45207;DHT22;30950;53.086;21.576;2024-01-30T05:22:26;1.40;99.90
45207;DHT22;30950;53.086;21.576;2024-01-30T05:24:54;1.40;99.90
45207;DHT22;30950;53.086;21.576;2024-01-30T05:27:21;1.40;99.90
45207;DHT22;30950;53.086;21.576;2024-01-30T05:29:49;3.10;99.90
45207;DHT22;30950;53.086;21.576;2024-01-30T05:32:16;1.40;99.90
45207;DHT22;30950;53.086;21.576;2024-01-30T05:34:44;1.50;99.90
45207;DHT22;30950;53.086;21.576;2024-01-30T05:37:11;1.40;99.90
45207;DHT22;30950;53.086;21.576;2024-01-30T05:39:41;1.50;99.90
45207;DHT22;30950;53.086;21.576;2024-01-30T05:42:09;1.50;99.90
45207;DHT22;30950;53.086;21.576;2024-01-30T05:44:37;1.50;99.90
45207;DHT22;30950;53.086;21.576;2024-01-30T05:47:04;3.30;99.90
45207;DHT22;30950;53.086;21.576;2024-01-30T05:49:31;1.50;99.90
45207;DHT22;30950;53.086;21.576;2024-01-30T05:51:59;1.50;99.90
45207;DHT22;30950;53.086;21.576;2024-01-30T05:54:27;1.50;99.90
45207;DHT22;30950;53.086;21.576;2024-01-30T05:56:54;1.50;99.90
45207;DHT22;30950;53.086;21.576;2024-01-30T05:59:21;1.50;99.90
45207;DHT22;30950;53.086;21.576;2024-01-30T06:01:48;1.50;99.90
45207;DHT22;30950;53.086;21.576;2024-01-30T06:04:16;1.50;99.90
45207;DHT22;30950;53.086;21.576;2024-01-30T06:06:43;1.50;99.90
45207;DHT22;30950;53.086;21.576;2024-01-30T06:09:11;1.50;99.90
45207;DHT22;30950;53.086;21.576;2024-01-30T06:11:40;1.60;99.90
45207;DHT22;30950;53.086;21.576;2024-01-30T06:14:07;1.50;99.90
45207;DHT22;30950;53.086;21.576;2024-01-30T06:16:34;1.50;99.90
45207;DHT22;30950;53.086;21.576;2024-01-30T06:19:02;1.60;99.90
45207;DHT22;30950;53.086;21.576;2024-01-30T06:21:29;1.50;99.90
45207;DHT22;30950;53.086;21.576;2024-01-30T06:23:58;1.60;99.90
45207;DHT22;30950;53.086;21.576;2024-01-30T06:26:25;1.60;99.90
45207;DHT22;30950;53.086;21.576;2024-01-30T06:28:52;1.60;99.90
45207;DHT22;30950;53.086;21.576;2024-01-30T06:31:19;1.60;99.90
45207;DHT22;30950;53.086;21.576;2024-01-30T06:33:47;1.60;99.90
45207;DHT22;30950;53.086;21.576;2024-01-30T06:36:15;1.60;99.90
45207;DHT22;30950;53.086;21.576;2024-01-30T06:38:42;1.60;99.90
45207;DHT22;30950;53.086;21.576;2024-01-30T06:41:09;1.70;99.90
45207;DHT22;30950;53.086;21.576;2024-01-30T06:43:37;1.70;99.90
45207;DHT22;30950;53.086;21.576;2024-01-30T06:46:04;1.70;99.90
45207;DHT22;30950;53.086;21.576;2024-01-30T06:48:31;1.80;99.90
45207;DHT22;30950;53.086;21.576;2024-01-30T06:50:59;1.80;99.90
45207;DHT22;30950;53.086;21.576;2024-01-30T06:53:26;1.80;99.90
45207;DHT22;30950;53.086;21.576;2024-01-30T06:55:54;1.80;99.90
45207;DHT22;30950;53.086;21.576;2024-01-30T06:58:21;1.80;99.90
45207;DHT22;30950;53.086;21.576;2024-01-30T07:00:48;1.80;99.90
45207;DHT22;30950;53.086;21.576;2024-01-30T07:03:16;1.90;99.90
45207;DHT22;30950;53.086;21.576;2024-01-30T07:05:43;1.90;99.90
45207;DHT22;30950;53.086;21.576;2024-01-30T07:08:15;1.90;99.90
45207;DHT22;30950;53.086;21.576;2024-01-30T07:10:44;1.90;99.90
45207;DHT22;30950;53.086;21.576;2024-01-30T07:13:12;2.00;99.90
45207;DHT22;30950;53.086;21.576;2024-01-30T07:15:39;2.00;99.90
45207;DHT22;30950;53.086;21.576;2024-01-30T07:18:07;2.00;99.90
45207;DHT22;30950;53.086;21.576;2024-01-30T07:20:34;2.00;99.90
45207;DHT22;30950;53.086;21.576;2024-01-30T07:23:02;2.10;99.90
45207;DHT22;30950;53.086;21.576;2024-01-30T07:25:30;2.10;99.90
45207;DHT22;30950;53.086;21.576;2024-01-30T07:27:57;2.10;99.90
45207;DHT22;30950;53.086;21.576;2024-01-30T07:30:25;2.10;99.90
45207;DHT22;30950;53.086;21.576;2024-01-30T07:32:52;2.10;99.90
45207;DHT22;30950;53.086;21.576;2024-01-30T07:35:19;2.10;99.90
45207;DHT22;30950;53.086;21.576;2024-01-30T07:37:47;2.10;99.90
45207;DHT22;30950;53.086;21.576;2024-01-30T07:40:15;2.20;99.90
45207;DHT22;30950;53.086;21.576;2024-01-30T07:42:42;2.20;99.90
45207;DHT22;30950;53.086;21.576;2024-01-30T07:45:09;2.30;99.90
45207;DHT22;30950;53.086;21.576;2024-01-30T07:47:37;2.30;99.90
45207;DHT22;30950;53.086;21.576;2024-01-30T07:50:04;2.30;99.90
45207;DHT22;30950;53.086;21.576;2024-01-30T07:52:32;2.40;99.90
45207;DHT22;30950;53.086;21.576;2024-01-30T07:54:59;2.40;99.90
45207;DHT22;30950;53.086;21.576;2024-01-30T07:57:27;2.40;99.90
45207;DHT22;30950;53.086;21.576;2024-01-30T07:59:54;2.40;99.90
45207;DHT22;30950;53.086;21.576;2024-01-30T08:02:21;2.40;99.90
45207;DHT22;30950;53.086;21.576;2024-01-30T08:04:49;2.40;99.90
45207;DHT22;30950;53.086;21.576;2024-01-30T08:07:17;2.60;99.90
45207;DHT22;30950;53.086;21.576;2024-01-30T08:09:49;2.60;99.90
45207;DHT22;30950;53.086;21.576;2024-01-30T08:12:16;2.50;99.90
45207;DHT22;30950;53.086;21.576;2024-01-30T08:14:44;2.40;99.90
45207;DHT22;30950;53.086;21.576;2024-01-30T08:17:11;2.40;99.90
45207;DHT22;30950;53.086;21.576;2024-01-30T08:19:38;2.40;99.90
45207;DHT22;30950;53.086;21.576;2024-01-30T08:22:06;2.50;99.90
45207;DHT22;30950;53.086;21.576;2024-01-30T08:24:33;2.50;99.90
45207;DHT22;30950;53.086;21.576;2024-01-30T08:27:00;2.50;99.90
45207;DHT22;30950;53.086;21.576;2024-01-30T08:29:29;2.60;99.90
45207;DHT22;30950;53.086;21.576;2024-01-30T08:31:57;2.60;99.90
45207;DHT22;30950;53.086;21.576;2024-01-30T08:34:26;2.80;99.90
45207;DHT22;30950;53.086;21.576;2024-01-30T08:36:53;2.60;99.90
45207;DHT22;30950;53.086;21.576;2024-01-30T08:39:21;2.60;99.90
45207;DHT22;30950;53.086;21.576;2024-01-30T08:41:48;2.60;99.90
45207;DHT22;30950;53.086;21.576;2024-01-30T08:44:16;2.70;99.90
45207;DHT22;30950;53.086;21.576;2024-01-30T08:46:44;2.70;99.90
45207;DHT22;30950;53.086;21.576;2024-01-30T08:49:12;2.70;99.90
45207;DHT22;30950;53.086;21.576;2024-01-30T08:51:40;2.80;99.90
45207;DHT22;30950;53.086;21.576;2024-01-30T08:54:07;2.80;99.90
45207;DHT22;30950;53.086;21.576;2024-01-30T08:56:35;2.80;99.90
45207;DHT22;30950;53.086;21.576;2024-01-30T08:59:02;2.90;99.90
45207;DHT22;30950;53.086;21.576;2024-01-30T09:01:29;3.00;99.90
45207;DHT22;30950;53.086;21.576;2024-01-30T09:03:57;3.00;99.90
45207;DHT22;30950;53.086;21.576;2024-01-30T09:06:25;3.10;99.90
45207;DHT22;30950;53.086;21.576;2024-01-30T09:08:54;3.20;99.90
45207;DHT22;30950;53.086;21.576;2024-01-30T09:11:22;3.30;99.90
45207;DHT22;30950;53.086;21.576;2024-01-30T09:13:49;3.30;99.90
45207;DHT22;30950;53.086;21.576;2024-01-30T09:16:17;3.40;99.90
45207;DHT22;30950;53.086;21.576;2024-01-30T09:18:44;3.30;99.90
45207;DHT22;30950;53.086;21.576;2024-01-30T09:21:11;3.30;99.90
45207;DHT22;30950;53.086;21.576;2024-01-30T09:23:39;4.60;99.90
45207;DHT22;30950;53.086;21.576;2024-01-30T09:26:07;3.40;99.90
45207;DHT22;30950;53.086;21.576;2024-01-30T09:28:34;3.40;99.90
45207;DHT22;30950;53.086;21.576;2024-01-30T09:31:02;3.30;99.90
45207;DHT22;30950;53.086;21.576;2024-01-30T09:33:29;3.40;99.90
45207;DHT22;30950;53.086;21.576;2024-01-30T09:35:57;3.40;99.90
45207;DHT22;30950;53.086;21.576;2024-01-30T09:38:24;3.40;99.90
45207;DHT22;30950;53.086;21.576;2024-01-30T09:40:54;3.50;99.90
45207;DHT22;30950;53.086;21.576;2024-01-30T09:43:24;3.50;99.90
45207;DHT22;30950;53.086;21.576;2024-01-30T09:45:54;3.60;99.90
45207;DHT22;30950;53.086;21.576;2024-01-30T09:48:22;3.60;99.90
45207;DHT22;30950;53.086;21.576;2024-01-30T09:50:51;3.70;99.90
45207;DHT22;30950;53.086;21.576;2024-01-30T09:53:19;3.70;99.90
45207;DHT22;30950;53.086;21.576;2024-01-30T09:55:47;3.80;99.90
45207;DHT22;30950;53.086;21.576;2024-01-30T09:58:17;3.90;99.90
45207;DHT22;30950;53.086;21.576;2024-01-30T10:00:44;3.90;99.90
45207;DHT22;30950;53.086;21.576;2024-01-30T10:03:12;4.00;99.90
45207;DHT22;30950;53.086;21.576;2024-01-30T10:05:50;4.10;99.90
45207;DHT22;30950;53.086;21.576;2024-01-30T10:08:19;4.10;99.90
45207;DHT22;30950;53.086;21.576;2024-01-30T10:10:47;4.20;99.90
45207;DHT22;30950;53.086;21.576;2024-01-30T10:13:14;4.20;99.90
45207;DHT22;30950;53.086;21.576;2024-01-30T10:15:42;4.30;99.90
45207;DHT22;30950;53.086;21.576;2024-01-30T10:18:09;4.40;99.90
45207;DHT22;30950;53.086;21.576;2024-01-30T10:20:37;4.40;99.90
45207;DHT22;30950;53.086;21.576;2024-01-30T10:23:04;4.50;99.90
45207;DHT22;30950;53.086;21.576;2024-01-30T10:25:32;4.50;99.90
45207;DHT22;30950;53.086;21.576;2024-01-30T10:27:59;4.50;99.90
45207;DHT22;30950;53.086;21.576;2024-01-30T10:30:27;4.60;99.90
45207;DHT22;30950;53.086;21.576;2024-01-30T10:32:55;4.60;99.90
45207;DHT22;30950;53.086;21.576;2024-01-30T10:35:22;4.70;99.90
45207;DHT22;30950;53.086;21.576;2024-01-30T10:37:50;5.00;99.90
45207;DHT22;30950;53.086;21.576;2024-01-30T10:40:20;5.50;99.90
45207;DHT22;30950;53.086;21.576;2024-01-30T10:42:53;6.20;99.90
45207;DHT22;30950;53.086;21.576;2024-01-30T10:45:25;6.60;99.90
45207;DHT22;30950;53.086;21.576;2024-01-30T10:47:55;7.10;99.90
45207;DHT22;30950;53.086;21.576;2024-01-30T10:50:26;7.30;99.90
45207;DHT22;30950;53.086;21.576;2024-01-30T10:52:55;7.50;99.90
45207;DHT22;30950;53.086;21.576;2024-01-30T10:55:25;8.00;99.90
45207;DHT22;30950;53.086;21.576;2024-01-30T10:57:55;8.30;99.90
45207;DHT22;30950;53.086;21.576;2024-01-30T11:00:23;8.60;99.90
45207;DHT22;30950;53.086;21.576;2024-01-30T11:02:51;8.50;99.90
45207;DHT22;30950;53.086;21.576;2024-01-30T11:05:25;8.30;99.90
45207;DHT22;30950;53.086;21.576;2024-01-30T11:08:10;9.00;99.00
45207;DHT22;30950;53.086;21.576;2024-01-30T11:10:46;7.40;99.90
45207;DHT22;30950;53.086;21.576;2024-01-30T11:13:14;7.20;99.90
45207;DHT22;30950;53.086;21.576;2024-01-30T11:15:42;7.00;99.90
45207;DHT22;30950;53.086;21.576;2024-01-30T11:18:09;6.70;99.90
45207;DHT22;30950;53.086;21.576;2024-01-30T11:20:36;6.60;99.90
45207;DHT22;30950;53.086;21.576;2024-01-30T11:23:04;7.00;99.90
45207;DHT22;30950;53.086;21.576;2024-01-30T11:25:34;7.20;99.90
45207;DHT22;30950;53.086;21.576;2024-01-30T11:28:02;6.20;99.90
45207;DHT22;30950;53.086;21.576;2024-01-30T11:30:32;6.20;99.90
45207;DHT22;30950;53.086;21.576;2024-01-30T11:33:00;6.20;99.90
45207;DHT22;30950;53.086;21.576;2024-01-30T11:35:37;6.20;99.90
45207;DHT22;30950;53.086;21.576;2024-01-30T11:38:08;6.10;99.90
45207;DHT22;30950;53.086;21.576;2024-01-30T11:40:37;6.10;99.90
45207;DHT22;30950;53.086;21.576;2024-01-30T11:43:07;6.10;99.90
45207;DHT22;30950;53.086;21.576;2024-01-30T11:45:35;6.30;99.90
45207;DHT22;30950;53.086;21.576;2024-01-30T11:48:04;6.40;99.90
45207;DHT22;30950;53.086;21.576;2024-01-30T11:50:33;6.60;99.90
45207;DHT22;30950;53.086;21.576;2024-01-30T11:53:01;6.80;99.90
45207;DHT22;30950;53.086;21.576;2024-01-30T11:55:30;7.00;99.90
45207;DHT22;30950;53.086;21.576;2024-01-30T11:58:02;7.20;99.90
45207;DHT22;30950;53.086;21.576;2024-01-30T12:00:30;7.60;99.90
45207;DHT22;30950;53.086;21.576;2024-01-30T12:03:01;7.90;99.90
45207;DHT22;30950;53.086;21.576;2024-01-30T12:05:31;8.10;99.90
45207;DHT22;30950;53.086;21.576;2024-01-30T12:07:58;8.10;99.90
45207;DHT22;30950;53.086;21.576;2024-01-30T12:10:27;8.20;99.70
45207;DHT22;30950;53.086;21.576;2024-01-30T12:12:56;8.00;96.90
45207;DHT22;30950;53.086;21.576;2024-01-30T12:15:24;7.90;97.70
45207;DHT22;30950;53.086;21.576;2024-01-30T12:17:52;7.90;98.10
45207;DHT22;30950;53.086;21.576;2024-01-30T12:20:19;7.70;99.10
45207;DHT22;30950;53.086;21.576;2024-01-30T12:22:49;7.80;99.90
45207;DHT22;30950;53.086;21.576;2024-01-30T12:25:18;7.80;98.80
45207;DHT22;30950;53.086;21.576;2024-01-30T12:27:48;8.00;99.70
45207;DHT22;30950;53.086;21.576;2024-01-30T12:30:20;8.00;98.30
45207;DHT22;30950;53.086;21.576;2024-01-30T12:32:50;7.90;98.10
45207;DHT22;30950;53.086;21.576;2024-01-30T12:35:20;8.00;97.70
45207;DHT22;30950;53.086;21.576;2024-01-30T12:37:49;8.00;98.10
45207;DHT22;30950;53.086;21.576;2024-01-30T12:40:17;8.10;99.00
45207;DHT22;30950;53.086;21.576;2024-01-30T12:42:46;8.10;97.20
45207;DHT22;30950;53.086;21.576;2024-01-30T12:45:17;8.10;96.90
45207;DHT22;30950;53.086;21.576;2024-01-30T12:47:48;8.10;96.80
45207;DHT22;30950;53.086;21.576;2024-01-30T12:50:16;8.10;97.60
45207;DHT22;30950;53.086;21.576;2024-01-30T12:52:44;8.10;98.10
45207;DHT22;30950;53.086;21.576;2024-01-30T12:55:17;8.10;97.90
45207;DHT22;30950;53.086;21.576;2024-01-30T12:57:45;7.50;97.50
45207;DHT22;30950;53.086;21.576;2024-01-30T13:00:13;8.00;98.60
45207;DHT22;30950;53.086;21.576;2024-01-30T13:02:41;8.10;98.40
45207;DHT22;30950;53.086;21.576;2024-01-30T13:05:10;8.10;98.90
45207;DHT22;30950;53.086;21.576;2024-01-30T13:07:37;8.10;98.40
45207;DHT22;30950;53.086;21.576;2024-01-30T13:10:05;8.00;98.80
45207;DHT22;30950;53.086;21.576;2024-01-30T13:12:33;8.00;98.90
45207;DHT22;30950;53.086;21.576;2024-01-30T13:15:01;8.00;99.00
45207;DHT22;30950;53.086;21.576;2024-01-30T13:17:28;7.90;98.70
45207;DHT22;30950;53.086;21.576;2024-01-30T13:19:56;7.90;98.90
45207;DHT22;30950;53.086;21.576;2024-01-30T13:22:34;7.90;99.00
45207;DHT22;30950;53.086;21.576;2024-01-30T13:25:01;8.00;98.40
45207;DHT22;30950;53.086;21.576;2024-01-30T13:27:28;7.90;98.00
45207;DHT22;30950;53.086;21.576;2024-01-30T13:29:56;8.20;99.00
45207;DHT22;30950;53.086;21.576;2024-01-30T13:32:25;8.00;98.30
45207;DHT22;30950;53.086;21.576;2024-01-30T13:34:52;8.10;98.60
45207;DHT22;30950;53.086;21.576;2024-01-30T13:37:19;8.10;99.20
45207;DHT22;30950;53.086;21.576;2024-01-30T13:39:47;8.20;99.40
45207;DHT22;30950;53.086;21.576;2024-01-30T13:42:14;8.20;99.30
45207;DHT22;30950;53.086;21.576;2024-01-30T13:44:42;9.00;98.20
45207;DHT22;30950;53.086;21.576;2024-01-30T13:47:10;8.40;98.80
45207;DHT22;30950;53.086;21.576;2024-01-30T13:49:38;8.40;98.60
45207;DHT22;30950;53.086;21.576;2024-01-30T13:52:05;8.50;98.30
45207;DHT22;30950;53.086;21.576;2024-01-30T13:54:33;8.50;98.40
45207;DHT22;30950;53.086;21.576;2024-01-30T13:57:00;8.50;98.00
45207;DHT22;30950;53.086;21.576;2024-01-30T13:59:27;8.50;97.40
45207;DHT22;30950;53.086;21.576;2024-01-30T14:01:55;8.50;97.70
45207;DHT22;30950;53.086;21.576;2024-01-30T14:04:22;8.50;97.80
45207;DHT22;30950;53.086;21.576;2024-01-30T14:06:50;8.50;98.40
45207;DHT22;30950;53.086;21.576;2024-01-30T14:09:30;8.40;97.40
45207;DHT22;30950;53.086;21.576;2024-01-30T14:11:59;8.30;96.70
45207;DHT22;30950;53.086;21.576;2024-01-30T14:14:27;8.30;96.70
45207;DHT22;30950;53.086;21.576;2024-01-30T14:16:54;8.30;96.60
45207;DHT22;30950;53.086;21.576;2024-01-30T14:19:22;8.20;97.70
45207;DHT22;30950;53.086;21.576;2024-01-30T14:21:49;8.20;97.90
45207;DHT22;30950;53.086;21.576;2024-01-30T14:24:16;8.20;97.70
45207;DHT22;30950;53.086;21.576;2024-01-30T14:26:44;8.10;98.70
45207;DHT22;30950;53.086;21.576;2024-01-30T14:29:11;8.10;98.70
45207;DHT22;30950;53.086;21.576;2024-01-30T14:31:39;8.10;98.90
45207;DHT22;30950;53.086;21.576;2024-01-30T14:34:06;8.40;99.30
45207;DHT22;30950;53.086;21.576;2024-01-30T14:36:35;8.10;99.90
45207;DHT22;30950;53.086;21.576;2024-01-30T14:39:03;8.20;99.90
45207;DHT22;30950;53.086;21.576;2024-01-30T14:41:30;9.20;99.90
45207;DHT22;30950;53.086;21.576;2024-01-30T14:43:58;8.10;99.90
45207;DHT22;30950;53.086;21.576;2024-01-30T14:46:25;8.00;99.90
45207;DHT22;30950;53.086;21.576;2024-01-30T14:48:54;7.90;99.90
45207;DHT22;30950;53.086;21.576;2024-01-30T14:51:21;7.90;99.90
45207;DHT22;30950;53.086;21.576;2024-01-30T14:53:49;7.70;99.90
45207;DHT22;30950;53.086;21.576;2024-01-30T14:56:16;7.50;99.90
45207;DHT22;30950;53.086;21.576;2024-01-30T14:58:44;7.40;99.90
45207;DHT22;30950;53.086;21.576;2024-01-30T15:01:12;7.30;99.90
45207;DHT22;30950;53.086;21.576;2024-01-30T15:03:39;8.00;99.90
45207;DHT22;30950;53.086;21.576;2024-01-30T15:06:08;7.00;99.90
45207;DHT22;30950;53.086;21.576;2024-01-30T15:08:35;6.90;99.90
45207;DHT22;30950;53.086;21.576;2024-01-30T15:11:03;6.80;99.90
45207;DHT22;30950;53.086;21.576;2024-01-30T15:13:31;6.70;99.90
45207;DHT22;30950;53.086;21.576;2024-01-30T15:15:59;7.20;99.90
45207;DHT22;30950;53.086;21.576;2024-01-30T15:18:26;6.60;99.90
45207;DHT22;30950;53.086;21.576;2024-01-30T15:20:54;6.50;99.90
45207;DHT22;30950;53.086;21.576;2024-01-30T15:23:21;6.40;99.90
45207;DHT22;30950;53.086;21.576;2024-01-30T15:25:49;6.30;99.90
45207;DHT22;30950;53.086;21.576;2024-01-30T15:28:16;6.30;99.90
45207;DHT22;30950;53.086;21.576;2024-01-30T15:30:44;6.20;99.90
45207;DHT22;30950;53.086;21.576;2024-01-30T15:33:11;6.20;99.90
45207;DHT22;30950;53.086;21.576;2024-01-30T15:35:39;6.10;99.90